createdAt,value
2023-03-19T00:01:05.010Z,4.90
2023-03-19T00:03:33.659Z,5.40
2023-03-19T00:06:02.074Z,5.30
2023-03-19T00:08:29.992Z,5.40
2023-03-19T00:10:59.528Z,5.20
2023-03-19T00:13:30.669Z,5.25
2023-03-19T00:15:58.860Z,5.60
2023-03-19T00:18:26.843Z,5.97
2023-03-19T00:20:54.931Z,5.68
2023-03-19T00:23:23.377Z,5.60
2023-03-19T00:25:51.420Z,6.18
2023-03-19T00:28:20.619Z,5.68
2023-03-19T00:30:49.407Z,5.72
2023-03-19T00:33:17.651Z,5.50
2023-03-19T00:35:47.797Z,5.65
2023-03-19T00:38:16.224Z,5.97
2023-03-19T00:40:44.242Z,5.95
2023-03-19T00:43:12.304Z,5.70
2023-03-19T00:45:42.162Z,5.28
2023-03-19T00:48:10.212Z,6.15
2023-03-19T00:50:39.322Z,6.03
2023-03-19T00:53:07.591Z,5.12
2023-03-19T00:55:36.107Z,5.37
2023-03-19T00:58:04.061Z,5.22
2023-03-19T01:03:02.424Z,5.20
2023-03-19T01:05:31.593Z,5.60
2023-03-19T01:07:59.928Z,6.00
2023-03-19T01:10:27.970Z,4.93
2023-03-19T01:12:56.037Z,5.15
2023-03-19T01:15:24.329Z,5.60
2023-03-19T01:17:52.326Z,4.32
2023-03-19T01:20:24.161Z,5.72
2023-03-19T01:22:54.724Z,5.07
2023-03-19T01:25:22.928Z,5.40
2023-03-19T01:27:52.336Z,5.40
2023-03-19T01:30:21.690Z,5.12
2023-03-19T01:32:51.313Z,6.15
2023-03-19T01:35:21.023Z,5.15
2023-03-19T01:37:49.346Z,5.90
2023-03-19T01:40:17.786Z,5.30
2023-03-19T01:42:56.353Z,5.47
2023-03-19T01:45:32.158Z,6.05
2023-03-19T01:48:00.970Z,5.22
2023-03-19T01:50:40.419Z,5.90
2023-03-19T01:53:13.632Z,5.07
2023-03-19T01:55:43.429Z,4.93
2023-03-19T01:58:12.068Z,5.03
2023-03-19T02:00:40.544Z,5.45
2023-03-19T02:03:09.694Z,5.45
2023-03-19T02:05:42.366Z,4.70
2023-03-19T02:08:14.713Z,4.85
2023-03-19T02:10:45.929Z,5.07
2023-03-19T02:13:15.686Z,5.00
2023-03-19T02:15:43.905Z,4.47
2023-03-19T02:18:11.959Z,5.30
2023-03-19T02:20:47.876Z,4.85
2023-03-19T02:23:24.589Z,4.90
2023-03-19T02:26:02.588Z,4.57
2023-03-19T02:28:32.729Z,4.80
2023-03-19T02:31:00.952Z,4.75
2023-03-19T02:33:30.095Z,4.65
2023-03-19T02:36:00.009Z,5.00
2023-03-19T02:38:30.837Z,5.00
2023-03-19T02:41:04.527Z,4.55
2023-03-19T02:43:33.838Z,4.37
2023-03-19T02:46:02.849Z,4.25
2023-03-19T02:48:31.617Z,4.87
2023-03-19T02:51:00.084Z,4.90
2023-03-19T02:53:28.159Z,5.07
2023-03-19T02:55:56.194Z,4.82
2023-03-19T02:58:25.803Z,4.82
2023-03-19T03:00:53.821Z,5.15
2023-03-19T03:03:21.792Z,5.05
2023-03-19T03:05:50.076Z,5.28
2023-03-19T03:08:19.390Z,4.82
2023-03-19T03:10:47.490Z,5.05
2023-03-19T03:13:17.202Z,6.03
2023-03-19T03:15:46.590Z,5.10
2023-03-19T03:18:14.516Z,5.37
2023-03-19T03:20:43.314Z,5.20
2023-03-19T03:23:11.469Z,5.65
2023-03-19T03:25:39.475Z,5.32
2023-03-19T03:28:07.934Z,5.30
2023-03-19T03:30:36.282Z,5.37
2023-03-19T03:33:05.588Z,5.32
2023-03-19T03:35:34.050Z,5.20
2023-03-19T03:38:03.446Z,4.20
2023-03-19T03:40:33.740Z,4.75
2023-03-19T03:43:02.471Z,5.22
2023-03-19T03:45:31.533Z,4.85
2023-03-19T03:47:59.694Z,4.60
2023-03-19T03:50:30.041Z,4.62
2023-03-19T03:52:59.099Z,5.37
2023-03-19T03:55:28.239Z,5.28
2023-03-19T03:57:56.528Z,5.35
2023-03-19T04:00:25.510Z,4.62
2023-03-19T04:02:53.854Z,5.28
2023-03-19T04:05:21.959Z,5.62
2023-03-19T04:07:53.751Z,5.68
2023-03-19T04:10:22.228Z,5.00
2023-03-19T04:12:50.140Z,4.78
2023-03-19T04:15:19.027Z,4.93
2023-03-19T04:17:47.424Z,5.25
2023-03-19T04:20:18.161Z,5.00
2023-03-19T04:22:46.792Z,4.80
2023-03-19T04:25:17.023Z,4.55
2023-03-19T04:27:45.172Z,4.78
2023-03-19T04:30:14.181Z,3.85
2023-03-19T04:32:44.427Z,4.25
2023-03-19T04:35:13.318Z,4.65
2023-03-19T04:37:43.355Z,4.75
2023-03-19T04:40:13.594Z,4.53
2023-03-19T04:42:44.598Z,5.20
2023-03-19T04:45:13.522Z,4.82
2023-03-19T04:47:42.580Z,4.47
2023-03-19T04:50:12.981Z,4.85
2023-03-19T04:52:45.822Z,4.25
2023-03-19T04:55:14.484Z,4.87
2023-03-19T04:57:46.153Z,4.85
2023-03-19T05:00:16.265Z,5.70
2023-03-19T05:02:44.891Z,4.20
2023-03-19T05:05:13.492Z,5.53
2023-03-19T05:07:45.017Z,4.70
2023-03-19T05:10:15.238Z,5.30
2023-03-19T05:12:45.382Z,4.28
2023-03-19T05:15:19.697Z,4.37
2023-03-19T05:17:51.104Z,4.32
2023-03-19T05:20:20.731Z,4.82
2023-03-19T05:22:48.783Z,4.12
2023-03-19T05:25:17.474Z,5.25
2023-03-19T05:27:47.366Z,5.53
2023-03-19T05:30:16.295Z,5.05
2023-03-19T05:32:47.169Z,5.57
2023-03-19T05:35:16.120Z,5.40
2023-03-19T05:37:44.219Z,5.03
2023-03-19T05:40:13.437Z,4.53
2023-03-19T05:42:42.434Z,4.72
2023-03-19T05:45:12.596Z,5.18
2023-03-19T05:47:41.248Z,5.07
2023-03-19T05:50:11.715Z,5.03
2023-03-19T05:52:40.707Z,5.12
2023-03-19T05:55:09.669Z,5.00
2023-03-19T05:57:38.140Z,4.45
2023-03-19T06:00:08.456Z,5.78
2023-03-19T06:02:44.064Z,4.95
2023-03-19T06:05:13.214Z,4.62
2023-03-19T06:07:41.593Z,4.95
2023-03-19T06:10:11.634Z,5.32
2023-03-19T06:12:40.096Z,6.15
2023-03-19T06:15:12.192Z,4.95
2023-03-19T06:17:44.692Z,5.28
2023-03-19T06:20:14.012Z,5.55
2023-03-19T06:22:42.420Z,5.55
2023-03-19T06:25:11.218Z,5.45
2023-03-19T06:27:39.279Z,5.35
2023-03-19T06:30:11.352Z,5.12
2023-03-19T06:32:41.811Z,5.72
2023-03-19T06:35:11.860Z,5.30
2023-03-19T06:37:40.831Z,5.28
2023-03-19T06:40:09.714Z,5.45
2023-03-19T06:42:38.348Z,5.65
2023-03-19T06:45:07.723Z,6.20
2023-03-19T06:47:35.733Z,6.20
2023-03-19T06:50:06.582Z,5.45
2023-03-19T06:52:36.226Z,5.95
2023-03-19T06:55:05.313Z,5.87
2023-03-19T06:57:33.586Z,5.53
2023-03-19T07:00:01.471Z,4.93
2023-03-19T07:02:30.004Z,5.70
2023-03-19T07:04:57.933Z,5.50
2023-03-19T07:07:26.137Z,6.10
2023-03-19T07:09:56.065Z,5.97
2023-03-19T07:12:27.793Z,5.20
2023-03-19T07:14:57.237Z,6.00
2023-03-19T07:17:25.744Z,5.90
2023-03-19T07:19:55.799Z,6.05
2023-03-19T07:22:24.161Z,5.53
2023-03-19T07:24:52.498Z,5.57
2023-03-19T07:27:22.056Z,6.32
2023-03-19T07:29:50.369Z,5.43
2023-03-19T07:32:18.319Z,5.68
2023-03-19T07:34:46.409Z,5.43
2023-03-19T07:37:14.676Z,5.45
2023-03-19T07:39:42.602Z,5.90
2023-03-19T07:42:10.667Z,5.53
2023-03-19T07:44:41.799Z,5.28
2023-03-19T07:47:19.121Z,6.47
2023-03-19T07:49:56.487Z,5.70
2023-03-19T07:52:24.499Z,6.12
2023-03-19T07:54:53.312Z,5.82
2023-03-19T07:57:21.806Z,6.25
2023-03-19T07:59:51.100Z,6.15
2023-03-19T08:02:22.692Z,6.53
2023-03-19T08:04:51.325Z,5.70
2023-03-19T08:07:20.227Z,6.15
2023-03-19T08:09:48.339Z,6.25
2023-03-19T08:12:16.737Z,6.35
2023-03-19T08:14:44.830Z,6.12
2023-03-19T08:17:14.075Z,5.78
2023-03-19T08:19:42.358Z,5.75
2023-03-19T08:22:10.940Z,6.00
2023-03-19T08:24:38.859Z,6.05
2023-03-19T08:27:07.836Z,5.97
2023-03-19T08:29:36.617Z,5.90
2023-03-19T08:32:05.118Z,5.93
2023-03-19T08:34:35.133Z,5.90
2023-03-19T08:37:03.074Z,6.00
2023-03-19T08:39:31.696Z,5.35
2023-03-19T08:41:59.961Z,6.12
2023-03-19T08:44:28.349Z,6.10
2023-03-19T08:46:56.558Z,5.57
2023-03-19T08:49:24.949Z,5.80
2023-03-19T08:51:54.474Z,5.78
2023-03-19T08:54:23.134Z,6.03
2023-03-19T08:56:51.475Z,5.87
2023-03-19T08:59:19.445Z,6.28
2023-03-19T09:01:51.171Z,5.87
2023-03-19T09:04:19.563Z,6.60
2023-03-19T09:06:51.124Z,6.80
2023-03-19T09:09:22.032Z,6.82
2023-03-19T09:11:50.316Z,5.97
2023-03-19T09:14:20.093Z,7.62
2023-03-19T09:16:48.362Z,6.55
2023-03-19T09:19:17.295Z,6.00
2023-03-19T09:21:45.719Z,6.32
2023-03-19T09:24:14.003Z,6.10
2023-03-19T09:26:43.324Z,5.90
2023-03-19T09:29:13.522Z,6.25
2023-03-19T09:31:42.000Z,12.27
2023-03-19T09:34:09.975Z,10.18
2023-03-19T09:36:38.444Z,7.15
2023-03-19T09:39:08.063Z,6.68
2023-03-19T09:41:46.178Z,5.60
2023-03-19T09:44:21.517Z,6.93
2023-03-19T09:46:53.665Z,5.90
2023-03-19T09:49:26.074Z,5.35
2023-03-19T09:51:57.434Z,5.35
2023-03-19T09:54:32.457Z,5.57
2023-03-19T09:57:02.495Z,5.15
2023-03-19T09:59:31.088Z,4.97
2023-03-19T10:02:07.638Z,5.10
2023-03-19T10:04:43.050Z,5.07
2023-03-19T10:07:25.741Z,5.15
2023-03-19T10:10:11.044Z,5.07
2023-03-19T10:12:53.156Z,4.70
2023-03-19T10:15:30.517Z,6.95
2023-03-19T10:18:04.441Z,5.50
2023-03-19T10:20:42.842Z,5.03
2023-03-19T10:23:30.094Z,4.90
2023-03-19T10:26:00.983Z,4.75
2023-03-19T10:28:31.234Z,4.20
2023-03-19T10:31:12.525Z,4.45
2023-03-19T10:33:46.110Z,4.60
2023-03-19T10:36:16.221Z,4.85
2023-03-19T10:38:45.403Z,4.57
2023-03-19T10:41:30.934Z,5.12
2023-03-19T10:44:03.566Z,4.25
2023-03-19T10:46:38.516Z,4.30
2023-03-19T10:49:12.036Z,4.53
2023-03-19T10:51:40.561Z,4.60
2023-03-19T10:54:24.207Z,4.60
2023-03-19T10:56:55.736Z,3.92
2023-03-19T10:59:27.880Z,4.07
2023-03-19T11:02:00.418Z,3.95
2023-03-19T11:04:29.885Z,4.10
2023-03-19T11:07:04.399Z,4.60
2023-03-19T11:09:36.401Z,4.55
2023-03-19T11:12:16.677Z,5.03
2023-03-19T11:14:48.933Z,5.35
2023-03-19T11:17:47.415Z,5.03
2023-03-19T11:20:24.644Z,4.85
2023-03-19T11:22:53.542Z,4.53
2023-03-19T11:25:27.730Z,3.97
2023-03-19T11:28:01.080Z,4.22
2023-03-19T11:30:39.073Z,4.15
2023-03-19T11:33:20.131Z,4.18
2023-03-19T11:35:56.376Z,3.83
2023-03-19T11:38:31.577Z,3.80
2023-03-19T11:41:09.276Z,2.95
2023-03-19T11:43:58.017Z,3.72
2023-03-19T11:46:44.135Z,4.00
2023-03-19T11:49:25.212Z,3.53
2023-03-19T11:52:00.837Z,3.58
2023-03-19T11:54:36.318Z,3.35
2023-03-19T11:57:09.456Z,3.53
2023-03-19T11:59:59.226Z,3.78
2023-03-19T12:02:55.719Z,3.65
2023-03-19T12:05:31.919Z,3.72
2023-03-19T12:08:20.957Z,3.60
2023-03-19T12:11:04.077Z,3.20
2023-03-19T12:13:53.665Z,3.40
2023-03-19T12:16:30.844Z,3.80
2023-03-19T12:19:16.030Z,3.50
2023-03-19T12:21:56.147Z,3.40
2023-03-19T12:24:33.586Z,3.08
2023-03-19T12:27:12.133Z,3.12
2023-03-19T12:29:48.115Z,3.20
2023-03-19T12:32:27.338Z,3.25
2023-03-19T12:35:01.429Z,3.33
2023-03-19T12:37:35.651Z,3.50
2023-03-19T12:40:16.585Z,3.33
2023-03-19T12:42:45.073Z,3.15
2023-03-19T12:45:25.459Z,2.40
2023-03-19T12:47:59.629Z,2.78
2023-03-19T12:50:32.305Z,2.58
2023-03-19T12:53:03.247Z,2.80
2023-03-19T12:55:38.680Z,2.28
2023-03-19T12:58:15.491Z,2.87
2023-03-19T13:00:52.035Z,2.83
2023-03-19T13:03:26.177Z,2.03
2023-03-19T13:06:00.794Z,2.70
2023-03-19T13:08:34.477Z,2.62
2023-03-19T13:11:06.970Z,2.33
2023-03-19T13:13:42.898Z,2.30
2023-03-19T13:16:23.016Z,1.83
2023-03-19T13:18:59.509Z,2.85
2023-03-19T13:21:32.310Z,2.22
2023-03-19T13:24:09.658Z,5.18
2023-03-19T13:26:38.582Z,6.97
2023-03-19T13:29:17.233Z,18.02
2023-03-19T13:31:46.266Z,4.80
2023-03-19T13:34:27.720Z,3.05
2023-03-19T13:37:03.523Z,4.75
2023-03-19T13:39:34.543Z,1.80
2023-03-19T13:42:24.991Z,1.90
2023-03-19T13:44:57.161Z,2.78
2023-03-19T13:47:39.871Z,2.65
2023-03-19T13:50:32.271Z,2.20
2023-03-19T13:53:24.244Z,1.92
2023-03-19T13:55:55.053Z,2.10
2023-03-19T13:58:43.703Z,1.70
2023-03-19T14:01:33.495Z,1.45
2023-03-19T14:04:04.031Z,1.40
2023-03-19T14:06:35.931Z,1.58
2023-03-19T14:09:08.628Z,1.33
2023-03-19T14:11:38.708Z,1.23
2023-03-19T14:14:14.894Z,1.37
2023-03-19T14:16:46.489Z,1.30
2023-03-19T14:19:19.942Z,1.08
2023-03-19T14:22:09.880Z,1.50
2023-03-19T14:24:58.775Z,1.33
2023-03-19T14:27:33.228Z,1.20
2023-03-19T14:30:08.842Z,1.08
2023-03-19T14:32:40.946Z,0.90
2023-03-19T14:35:16.214Z,1.25
2023-03-19T14:37:50.226Z,1.52
2023-03-19T14:40:23.142Z,1.98
2023-03-19T14:43:04.242Z,1.80
2023-03-19T14:45:50.506Z,2.03
2023-03-19T14:48:40.729Z,1.83
2023-03-19T14:51:52.842Z,0.90
2023-03-19T14:54:29.387Z,1.30
2023-03-19T14:56:59.101Z,1.00
2023-03-19T14:59:27.175Z,0.95
2023-03-19T15:01:55.464Z,1.10
2023-03-19T15:04:27.118Z,1.05
2023-03-19T15:06:58.904Z,0.90
2023-03-19T15:09:31.221Z,1.02
2023-03-19T15:12:32.832Z,0.75
2023-03-19T15:15:25.946Z,0.75
2023-03-19T15:18:04.138Z,1.08
2023-03-19T15:20:38.200Z,1.00
2023-03-19T15:23:23.441Z,1.27
2023-03-19T15:25:57.704Z,0.90
2023-03-19T15:28:30.799Z,0.80
2023-03-19T15:31:12.251Z,0.90
2023-03-19T15:33:49.343Z,0.85
2023-03-19T15:36:21.940Z,1.00
2023-03-19T15:38:55.255Z,0.90
2023-03-19T15:41:25.638Z,1.20
2023-03-19T15:43:56.309Z,1.70
2023-03-19T15:46:28.235Z,1.10
2023-03-19T15:49:04.360Z,1.20
2023-03-19T15:51:33.672Z,1.10
2023-03-19T15:54:03.271Z,1.20
2023-03-19T15:56:32.385Z,1.05
2023-03-19T15:59:03.628Z,1.10
2023-03-19T16:01:34.250Z,1.10
2023-03-19T16:04:06.944Z,1.08
2023-03-19T16:06:38.834Z,1.40
2023-03-19T16:09:16.562Z,1.65
2023-03-19T16:11:46.374Z,1.40
2023-03-19T16:14:25.013Z,2.05
2023-03-19T16:16:54.194Z,1.50
2023-03-19T16:19:32.403Z,1.70
2023-03-19T16:22:01.801Z,2.50
2023-03-19T16:24:34.296Z,3.00
2023-03-19T16:27:05.103Z,2.45
2023-03-19T16:29:39.670Z,2.60
2023-03-19T16:32:19.774Z,3.35
2023-03-19T16:34:50.442Z,2.72
2023-03-19T16:37:33.940Z,2.42
2023-03-19T16:40:23.894Z,2.78
2023-03-19T16:42:54.041Z,2.35
2023-03-19T16:45:27.674Z,2.30
2023-03-19T16:47:57.890Z,2.35
2023-03-19T16:50:31.124Z,1.77
2023-03-19T16:53:00.657Z,1.58
2023-03-19T16:55:32.246Z,1.70
2023-03-19T16:58:02.346Z,1.58
2023-03-19T17:00:34.729Z,1.83
2023-03-19T17:03:02.930Z,1.98
2023-03-19T17:05:31.447Z,1.40
2023-03-19T17:07:59.421Z,1.45
2023-03-19T17:10:30.181Z,1.50
2023-03-19T17:13:00.811Z,1.85
2023-03-19T17:15:32.516Z,1.77
2023-03-19T17:18:03.751Z,1.55
2023-03-19T17:20:34.261Z,1.48
2023-03-19T17:23:02.781Z,1.25
2023-03-19T17:25:31.716Z,1.60
2023-03-19T17:28:00.486Z,1.52
2023-03-19T17:30:29.022Z,1.42
2023-03-19T17:32:57.785Z,1.35
2023-03-19T17:35:30.146Z,1.80
2023-03-19T17:37:59.229Z,1.50
2023-03-19T17:40:28.877Z,1.90
2023-03-19T17:42:57.879Z,1.37
2023-03-19T17:45:29.844Z,1.37
2023-03-19T17:47:59.393Z,1.45
2023-03-19T17:50:33.365Z,1.70
2023-03-19T17:53:02.200Z,1.77
2023-03-19T17:55:31.111Z,2.10
2023-03-19T17:57:59.284Z,1.37
2023-03-19T18:00:27.477Z,1.80
2023-03-19T18:02:57.049Z,2.10
2023-03-19T18:05:26.509Z,2.00
2023-03-19T18:07:57.986Z,2.00
2023-03-19T18:10:30.455Z,1.80
2023-03-19T18:13:00.221Z,2.00
2023-03-19T18:15:31.629Z,2.55
2023-03-19T18:18:03.004Z,5.32
2023-03-19T18:20:35.697Z,8.07
2023-03-19T18:23:05.428Z,7.43
2023-03-19T18:25:35.644Z,4.55
2023-03-19T18:28:05.050Z,2.67
2023-03-19T18:30:35.729Z,2.62
2023-03-19T18:33:06.689Z,2.25
2023-03-19T18:35:39.275Z,2.20
2023-03-19T18:38:15.089Z,2.28
2023-03-19T18:40:43.509Z,2.00
2023-03-19T18:43:15.517Z,2.12
2023-03-19T18:45:46.425Z,2.90
2023-03-19T18:48:21.669Z,2.90
2023-03-19T18:50:50.863Z,3.50
2023-03-19T18:53:20.278Z,2.97
2023-03-19T18:55:49.415Z,2.90
2023-03-19T18:58:21.046Z,2.35
2023-03-19T19:00:49.849Z,2.22
2023-03-19T19:03:21.531Z,2.28
2023-03-19T19:05:49.766Z,2.83
2023-03-19T19:08:21.557Z,2.20
2023-03-19T19:10:53.701Z,2.33
2023-03-19T19:13:25.602Z,1.90
2023-03-19T19:15:54.733Z,2.42
2023-03-19T19:18:24.684Z,2.12
2023-03-19T19:20:54.815Z,2.35
2023-03-19T19:23:26.765Z,2.25
2023-03-19T19:25:56.122Z,2.22
2023-03-19T19:28:27.771Z,2.00
2023-03-19T19:30:57.562Z,2.40
2023-03-19T19:33:28.739Z,2.75
2023-03-19T19:35:57.688Z,2.30
2023-03-19T19:38:30.204Z,2.58
2023-03-19T19:41:00.264Z,2.45
2023-03-19T19:43:31.418Z,2.28
2023-03-19T19:46:00.022Z,2.85
2023-03-19T19:48:30.509Z,2.42
2023-03-19T19:50:59.227Z,2.30
2023-03-19T19:53:31.893Z,2.42
2023-03-19T19:56:00.200Z,2.25
2023-03-19T19:58:30.965Z,2.03
2023-03-19T20:01:03.917Z,3.20
2023-03-19T20:03:34.663Z,3.35
2023-03-19T20:06:03.408Z,3.87
2023-03-19T20:08:33.080Z,4.43
2023-03-19T20:11:02.241Z,5.20
2023-03-19T20:13:34.069Z,4.43
2023-03-19T20:16:03.810Z,4.32
2023-03-19T20:18:35.604Z,3.95
2023-03-19T20:21:04.984Z,3.42
2023-03-19T20:23:35.048Z,3.15
2023-03-19T20:26:03.999Z,3.35
2023-03-19T20:28:35.666Z,3.17
2023-03-19T20:31:05.618Z,3.65
2023-03-19T20:33:34.490Z,3.50
2023-03-19T20:36:03.308Z,3.20
2023-03-19T20:38:31.723Z,3.20
2023-03-19T20:41:01.097Z,3.30
2023-03-19T20:43:30.762Z,3.25
2023-03-19T20:46:01.889Z,3.03
2023-03-19T20:48:31.410Z,2.72
2023-03-19T20:51:01.065Z,3.53
2023-03-19T20:53:29.917Z,3.42
2023-03-19T20:56:00.100Z,2.80
2023-03-19T20:58:33.566Z,2.72
2023-03-19T21:01:02.942Z,3.12
2023-03-19T21:03:32.819Z,2.85
2023-03-19T21:06:03.143Z,3.10
2023-03-19T21:08:34.776Z,3.08
2023-03-19T21:11:03.174Z,3.10
2023-03-19T21:13:32.837Z,2.78
2023-03-19T21:16:02.000Z,3.28
2023-03-19T21:18:30.017Z,3.17
2023-03-19T21:20:59.770Z,3.40
2023-03-19T21:23:32.407Z,3.60
2023-03-19T21:26:04.851Z,3.35
2023-03-19T21:28:37.822Z,3.15
2023-03-19T21:31:07.549Z,3.70
2023-03-19T21:33:37.157Z,3.25
2023-03-19T21:36:07.287Z,3.25
2023-03-19T21:38:35.970Z,3.45
2023-03-19T21:41:09.573Z,3.67
2023-03-19T21:43:43.778Z,3.80
2023-03-19T21:46:23.812Z,3.78
2023-03-19T21:48:54.431Z,3.80
2023-03-19T21:51:25.090Z,3.50
2023-03-19T21:53:53.464Z,3.85
2023-03-19T21:56:24.136Z,3.70
2023-03-19T21:58:54.339Z,4.00
2023-03-19T22:01:25.305Z,4.53
2023-03-19T22:03:54.684Z,3.95
2023-03-19T22:06:22.980Z,3.95
2023-03-19T22:08:53.738Z,4.00
2023-03-19T22:11:25.407Z,4.22
2023-03-19T22:13:55.493Z,3.95
2023-03-19T22:16:25.787Z,4.00
2023-03-19T22:18:54.017Z,3.83
2023-03-19T22:21:23.690Z,4.47
2023-03-19T22:23:52.724Z,3.78
2023-03-19T22:26:29.796Z,3.50
2023-03-19T22:29:01.867Z,3.87
2023-03-19T22:31:30.761Z,3.33
2023-03-19T22:33:59.320Z,4.12
2023-03-19T22:36:27.311Z,3.60
2023-03-19T22:38:55.435Z,3.60
2023-03-19T22:41:28.269Z,3.78
2023-03-19T22:43:59.992Z,3.75
2023-03-19T22:46:28.795Z,3.80
2023-03-19T22:48:56.882Z,3.40
2023-03-19T22:51:27.279Z,3.87
2023-03-19T22:53:58.708Z,3.22
2023-03-19T22:56:26.644Z,3.70
2023-03-19T22:58:54.752Z,3.87
2023-03-19T23:01:43.949Z,3.58
2023-03-19T23:04:19.697Z,3.08
2023-03-19T23:06:48.046Z,2.70
2023-03-19T23:09:17.769Z,2.65
2023-03-19T23:11:45.824Z,2.67
2023-03-19T23:14:28.073Z,3.10
2023-03-19T23:17:00.969Z,2.40
2023-03-19T23:19:31.453Z,2.35
2023-03-19T23:22:00.886Z,3.17
2023-03-19T23:24:30.430Z,2.50
2023-03-19T23:27:00.433Z,2.08
2023-03-19T23:29:32.423Z,1.98
2023-03-19T23:32:01.913Z,1.67
2023-03-19T23:34:29.953Z,2.58
2023-03-19T23:37:00.006Z,2.10
2023-03-19T23:39:28.466Z,2.08
2023-03-19T23:41:58.962Z,2.03
2023-03-19T23:44:29.000Z,1.98
2023-03-19T23:47:02.896Z,2.20
2023-03-19T23:49:33.284Z,1.70
2023-03-19T23:52:04.317Z,2.15
2023-03-19T23:54:36.651Z,2.15
2023-03-19T23:57:08.031Z,2.03
2023-03-19T23:59:39.077Z,1.90
